createdAt,value
2023-05-14T00:00:30.997Z,13.20
2023-05-14T00:02:57.798Z,13.10
2023-05-14T00:05:24.718Z,13.10
2023-05-14T00:07:51.382Z,13.10
2023-05-14T00:10:20.312Z,13.10
2023-05-14T00:12:47.286Z,13.10
2023-05-14T00:15:14.040Z,13.10
2023-05-14T00:17:42.373Z,13.00
2023-05-14T00:20:11.934Z,12.90
2023-05-14T00:22:39.617Z,12.90
2023-05-14T00:25:08.106Z,12.80
2023-05-14T00:27:35.996Z,12.80
2023-05-14T00:30:04.751Z,12.80
2023-05-14T00:32:31.617Z,12.80
2023-05-14T00:34:58.530Z,12.70
2023-05-14T00:37:25.309Z,12.70
2023-05-14T00:39:52.167Z,12.70
2023-05-14T00:42:18.842Z,12.70
2023-05-14T00:44:45.641Z,12.70
2023-05-14T00:47:12.816Z,12.60
2023-05-14T00:49:40.876Z,12.60
2023-05-14T00:52:07.792Z,12.50
2023-05-14T00:54:36.336Z,12.50
2023-05-14T00:57:04.729Z,12.50
2023-05-14T00:59:31.672Z,12.50
2023-05-14T01:01:58.336Z,12.50
2023-05-14T01:04:25.163Z,12.50
2023-05-14T01:06:57.703Z,12.50
2023-05-14T01:09:43.600Z,12.50
2023-05-14T01:12:35.265Z,12.50
2023-05-14T01:15:04.870Z,12.50
2023-05-14T01:17:37.545Z,12.50
2023-05-14T01:20:04.708Z,12.40
2023-05-14T01:22:31.491Z,12.40
2023-05-14T01:24:58.190Z,12.40
2023-05-14T01:28:02.807Z,12.40
2023-05-14T01:30:37.479Z,12.40
2023-05-14T01:33:11.150Z,12.40
2023-05-14T01:35:38.202Z,12.40
2023-05-14T01:38:07.746Z,12.40
2023-05-14T01:40:36.184Z,12.30
2023-05-14T01:43:03.937Z,12.40
2023-05-14T01:45:31.393Z,12.50
2023-05-14T01:47:58.173Z,12.50
2023-05-14T01:50:25.136Z,12.60
2023-05-14T01:52:53.478Z,12.60
2023-05-14T01:55:20.346Z,12.60
2023-05-14T01:57:46.958Z,12.60
2023-05-14T02:00:13.909Z,12.60
2023-05-14T02:02:40.998Z,12.60
2023-05-14T02:05:08.560Z,12.70
2023-05-14T02:07:35.357Z,12.60
2023-05-14T02:10:02.093Z,12.60
2023-05-14T02:12:28.786Z,12.50
2023-05-14T02:14:55.601Z,12.50
2023-05-14T02:17:22.869Z,12.60
2023-05-14T02:19:49.665Z,12.60
2023-05-14T02:22:16.313Z,12.60
2023-05-14T02:24:42.950Z,12.60
2023-05-14T02:27:09.600Z,12.60
2023-05-14T02:29:36.276Z,12.60
2023-05-14T02:32:02.932Z,12.60
2023-05-14T02:34:29.599Z,12.60
2023-05-14T02:36:56.445Z,12.60
2023-05-14T02:39:23.145Z,12.60
2023-05-14T02:41:49.822Z,12.70
2023-05-14T02:44:16.480Z,12.60
2023-05-14T02:46:43.428Z,12.60
2023-05-14T02:49:10.232Z,12.60
2023-05-14T02:51:36.882Z,12.60
2023-05-14T02:54:03.745Z,12.60
2023-05-14T02:56:30.487Z,12.60
2023-05-14T02:58:57.152Z,12.60
2023-05-14T03:01:24.297Z,12.50
2023-05-14T03:03:51.263Z,12.50
2023-05-14T03:06:18.492Z,12.50
2023-05-14T03:08:45.646Z,12.60
2023-05-14T03:11:12.445Z,12.60
2023-05-14T03:13:39.077Z,12.60
2023-05-14T03:16:05.890Z,12.60
2023-05-14T03:18:33.371Z,12.60
2023-05-14T03:21:00.096Z,12.60
2023-05-14T03:23:26.802Z,12.60
2023-05-14T03:25:53.495Z,12.70
2023-05-14T03:28:20.251Z,12.70
2023-05-14T03:30:46.953Z,12.70
2023-05-14T03:33:13.819Z,12.70
2023-05-14T03:35:40.446Z,12.70
2023-05-14T03:38:07.505Z,12.70
2023-05-14T03:40:34.332Z,12.70
2023-05-14T03:43:01.165Z,12.70
2023-05-14T03:45:28.711Z,12.70
2023-05-14T03:47:55.555Z,12.70
2023-05-14T03:50:25.362Z,12.80
2023-05-14T03:52:52.640Z,12.70
2023-05-14T03:55:22.644Z,12.70
2023-05-14T03:57:49.272Z,12.70
2023-05-14T04:00:16.316Z,12.70
2023-05-14T04:02:43.246Z,12.80
2023-05-14T04:05:10.053Z,12.80
2023-05-14T04:07:36.789Z,12.80
2023-05-14T04:10:04.849Z,12.90
2023-05-14T04:12:31.650Z,12.90
2023-05-14T04:14:58.488Z,12.90
2023-05-14T04:17:25.840Z,12.90
2023-05-14T04:19:52.561Z,12.90
2023-05-14T04:22:19.260Z,12.90
2023-05-14T04:24:45.975Z,12.80
2023-05-14T04:27:21.548Z,12.90
2023-05-14T04:29:51.603Z,12.90
2023-05-14T04:32:18.377Z,12.90
2023-05-14T04:34:46.756Z,12.90
2023-05-14T04:37:13.967Z,13.00
2023-05-14T04:39:40.695Z,13.00
2023-05-14T04:42:07.883Z,13.10
2023-05-14T04:44:36.214Z,13.10
2023-05-14T04:47:03.126Z,13.10
2023-05-14T04:49:30.939Z,13.10
2023-05-14T04:51:57.559Z,13.20
2023-05-14T04:54:24.390Z,13.20
2023-05-14T04:56:51.337Z,13.20
2023-05-14T04:59:18.096Z,13.20
2023-05-14T05:01:45.771Z,13.20
2023-05-14T05:04:12.874Z,13.30
2023-05-14T05:06:39.824Z,13.30
2023-05-14T05:09:06.527Z,13.30
2023-05-14T05:11:33.195Z,13.30
2023-05-14T05:13:59.854Z,13.40
2023-05-14T05:16:26.613Z,13.50
2023-05-14T05:18:53.468Z,13.60
2023-05-14T05:21:20.485Z,13.60
2023-05-14T05:23:47.198Z,13.60
2023-05-14T05:26:13.880Z,13.60
2023-05-14T05:28:40.634Z,13.70
2023-05-14T05:31:07.498Z,13.70
2023-05-14T05:33:35.010Z,13.70
2023-05-14T05:36:01.746Z,13.70
2023-05-14T05:38:28.473Z,13.70
2023-05-14T05:40:55.373Z,13.80
2023-05-14T05:43:22.133Z,13.90
2023-05-14T05:45:48.781Z,13.90
2023-05-14T05:48:15.515Z,14.00
2023-05-14T05:50:44.212Z,14.10
2023-05-14T05:53:10.883Z,14.10
2023-05-14T05:55:37.802Z,14.20
2023-05-14T05:58:04.575Z,14.30
2023-05-14T06:00:31.419Z,14.30
2023-05-14T06:02:58.105Z,14.40
2023-05-14T06:05:24.836Z,14.50
2023-05-14T06:07:53.396Z,14.60
2023-05-14T06:10:20.270Z,14.60
2023-05-14T06:12:46.940Z,14.60
2023-05-14T06:15:13.730Z,14.60
2023-05-14T06:17:40.564Z,14.60
2023-05-14T06:20:11.143Z,14.80
2023-05-14T06:22:37.954Z,15.10
2023-05-14T06:25:05.014Z,15.20
2023-05-14T06:27:31.654Z,15.40
2023-05-14T06:29:58.314Z,15.50
2023-05-14T06:32:24.987Z,15.60
2023-05-14T06:34:51.664Z,15.50
2023-05-14T06:37:18.346Z,15.70
2023-05-14T06:39:49.933Z,15.80
2023-05-14T06:42:17.260Z,16.00
2023-05-14T06:44:44.866Z,16.10
2023-05-14T06:47:11.778Z,16.20
2023-05-14T06:49:39.603Z,16.40
2023-05-14T06:52:06.784Z,16.50
2023-05-14T06:54:33.518Z,16.60
2023-05-14T06:57:00.302Z,16.80
2023-05-14T06:59:27.028Z,17.00
2023-05-14T07:01:53.763Z,17.20
2023-05-14T07:04:20.613Z,17.30
2023-05-14T07:06:47.338Z,17.20
2023-05-14T07:09:14.361Z,17.30
2023-05-14T07:11:41.009Z,17.10
2023-05-14T07:14:07.634Z,16.90
2023-05-14T07:16:34.348Z,16.70
2023-05-14T07:19:01.046Z,16.60
2023-05-14T07:21:27.941Z,16.60
2023-05-14T07:23:54.621Z,16.80
2023-05-14T07:26:21.475Z,16.80
2023-05-14T07:28:48.159Z,16.90
2023-05-14T07:31:14.848Z,16.80
2023-05-14T07:33:41.501Z,16.70
2023-05-14T07:36:08.856Z,16.70
2023-05-14T07:38:35.704Z,16.60
2023-05-14T07:41:02.794Z,16.50
2023-05-14T07:43:29.459Z,16.60
2023-05-14T07:45:56.475Z,16.70
2023-05-14T07:48:23.271Z,16.80
2023-05-14T07:50:50.059Z,16.80
2023-05-14T07:53:16.780Z,16.80
2023-05-14T07:55:45.306Z,16.90
2023-05-14T07:58:11.973Z,16.80
2023-05-14T08:00:38.762Z,16.70
2023-05-14T08:03:05.561Z,16.80
2023-05-14T08:05:33.000Z,16.70
2023-05-14T08:07:59.668Z,16.80
2023-05-14T08:10:26.948Z,16.90
2023-05-14T08:12:53.978Z,17.00
2023-05-14T08:15:20.977Z,17.10
2023-05-14T08:17:47.690Z,17.20
2023-05-14T08:20:14.466Z,17.20
2023-05-14T08:22:41.320Z,17.30
2023-05-14T08:25:08.386Z,17.50
2023-05-14T08:27:35.202Z,17.80
2023-05-14T08:30:01.847Z,18.10
2023-05-14T08:32:28.601Z,18.00
2023-05-14T08:34:55.332Z,17.80
2023-05-14T08:37:21.998Z,17.80
2023-05-14T08:39:49.403Z,17.80
2023-05-14T08:42:20.654Z,17.80
2023-05-14T08:44:56.974Z,17.40
2023-05-14T08:47:25.284Z,17.10
2023-05-14T08:49:58.699Z,16.80
2023-05-14T08:52:25.489Z,16.80
2023-05-14T08:54:53.969Z,16.90
2023-05-14T08:57:24.812Z,17.20
2023-05-14T08:59:51.844Z,17.40
2023-05-14T09:02:24.313Z,17.40
2023-05-14T09:05:01.329Z,17.50
2023-05-14T09:07:28.357Z,17.40
2023-05-14T09:09:55.758Z,17.10
2023-05-14T09:12:22.892Z,16.90
2023-05-14T09:14:50.867Z,16.90
2023-05-14T09:17:18.700Z,16.90
2023-05-14T09:19:49.423Z,16.80
2023-05-14T09:22:19.567Z,16.90
2023-05-14T09:24:46.623Z,16.80
2023-05-14T09:27:20.696Z,16.80
2023-05-14T09:29:48.160Z,16.90
2023-05-14T09:32:14.879Z,17.00
2023-05-14T09:34:42.227Z,17.10
2023-05-14T09:37:09.963Z,17.20
2023-05-14T09:39:38.124Z,17.20
2023-05-14T09:42:05.417Z,17.30
2023-05-14T09:44:32.216Z,17.50
2023-05-14T09:46:59.007Z,17.80
2023-05-14T09:49:25.876Z,18.10
2023-05-14T09:51:52.725Z,18.30
2023-05-14T09:54:19.533Z,18.40
2023-05-14T09:56:46.209Z,18.60
2023-05-14T09:59:13.065Z,18.70
2023-05-14T10:01:43.596Z,18.60
2023-05-14T10:04:12.275Z,18.50
2023-05-14T10:06:40.076Z,18.40
2023-05-14T10:09:16.637Z,18.50
2023-05-14T10:11:46.957Z,18.90
2023-05-14T10:14:32.687Z,19.10
2023-05-14T10:17:01.724Z,19.10
2023-05-14T10:19:34.126Z,19.10
2023-05-14T10:22:06.932Z,19.20
2023-05-14T10:24:34.099Z,19.30
2023-05-14T10:27:01.369Z,19.20
2023-05-14T10:29:34.946Z,19.10
2023-05-14T10:32:06.569Z,19.10
2023-05-14T10:34:48.105Z,19.20
2023-05-14T10:37:20.999Z,19.30
2023-05-14T10:39:51.775Z,19.30
2023-05-14T10:42:23.855Z,19.30
2023-05-14T10:44:54.901Z,19.40
2023-05-14T10:47:22.227Z,19.60
2023-05-14T10:49:49.565Z,19.60
2023-05-14T10:52:20.822Z,19.50
2023-05-14T10:54:51.228Z,19.70
2023-05-14T10:57:19.323Z,19.90
2023-05-14T10:59:47.730Z,19.80
2023-05-14T11:02:26.156Z,20.00
2023-05-14T11:05:05.013Z,20.20
2023-05-14T11:07:33.130Z,20.40
2023-05-14T11:10:02.691Z,20.40
2023-05-14T11:12:29.973Z,20.20
2023-05-14T11:15:00.990Z,20.00
2023-05-14T11:17:28.987Z,19.70
2023-05-14T11:19:56.368Z,19.60
2023-05-14T11:22:23.399Z,19.50
2023-05-14T11:24:50.740Z,19.30
2023-05-14T11:27:18.329Z,19.30
2023-05-14T11:29:46.287Z,19.30
2023-05-14T11:32:14.241Z,19.20
2023-05-14T11:34:41.565Z,19.20
2023-05-14T11:37:09.202Z,19.40
2023-05-14T11:39:37.570Z,19.50
2023-05-14T11:42:17.298Z,19.60
2023-05-14T11:44:44.539Z,19.80
2023-05-14T11:47:11.895Z,20.10
2023-05-14T11:49:39.036Z,20.40
2023-05-14T11:52:10.183Z,20.50
2023-05-14T11:54:37.137Z,20.70
2023-05-14T11:57:11.586Z,21.00
2023-05-14T11:59:39.092Z,21.20
2023-05-14T12:02:08.609Z,21.40
2023-05-14T12:04:35.539Z,21.50
2023-05-14T12:07:09.400Z,21.20
2023-05-14T12:09:42.559Z,21.20
2023-05-14T12:12:12.197Z,21.30
2023-05-14T12:14:41.500Z,21.60
2023-05-14T12:17:15.820Z,21.50
2023-05-14T12:19:44.241Z,21.50
2023-05-14T12:22:13.614Z,21.30
2023-05-14T12:24:40.419Z,21.30
2023-05-14T12:27:09.211Z,21.00
2023-05-14T12:29:38.127Z,20.80
2023-05-14T12:32:09.311Z,21.00
2023-05-14T12:34:37.666Z,21.10
2023-05-14T12:37:05.389Z,21.20
2023-05-14T12:39:33.824Z,21.30
2023-05-14T12:42:02.636Z,21.10
2023-05-14T12:44:29.362Z,21.00
2023-05-14T12:46:56.333Z,20.60
2023-05-14T12:49:23.063Z,20.60
2023-05-14T12:51:52.672Z,20.70
2023-05-14T12:54:23.657Z,21.00
2023-05-14T12:56:50.415Z,21.00
2023-05-14T12:59:17.119Z,21.10
2023-05-14T13:01:43.803Z,21.10
2023-05-14T13:04:13.903Z,21.10
2023-05-14T13:06:40.737Z,21.00
2023-05-14T13:09:08.642Z,20.80
2023-05-14T13:11:35.760Z,20.90
2023-05-14T13:14:02.932Z,21.10
2023-05-14T13:16:30.208Z,21.40
2023-05-14T13:18:57.082Z,21.60
2023-05-14T13:21:23.828Z,21.70
2023-05-14T13:23:50.670Z,21.80
2023-05-14T13:26:17.417Z,21.70
2023-05-14T13:28:44.160Z,21.40
2023-05-14T13:31:12.457Z,21.00
2023-05-14T13:33:42.211Z,20.70
2023-05-14T13:36:10.127Z,20.60
2023-05-14T13:38:36.848Z,20.80
2023-05-14T13:41:03.790Z,21.00
2023-05-14T13:43:32.208Z,21.20
2023-05-14T13:45:59.447Z,21.20
2023-05-14T13:48:27.018Z,21.40
2023-05-14T13:50:54.237Z,21.60
2023-05-14T13:53:23.011Z,21.50
2023-05-14T13:55:50.703Z,21.20
2023-05-14T13:58:17.654Z,21.10
2023-05-14T14:00:44.338Z,21.00
2023-05-14T14:03:11.062Z,20.90
2023-05-14T14:05:37.859Z,20.70
2023-05-14T14:08:21.846Z,20.60
2023-05-14T14:10:49.227Z,20.40
2023-05-14T14:13:16.218Z,20.30
2023-05-14T14:15:43.693Z,20.10
2023-05-14T14:18:10.503Z,20.20
2023-05-14T14:20:37.299Z,20.30
2023-05-14T14:23:04.219Z,20.30
2023-05-14T14:25:30.865Z,20.30
2023-05-14T14:27:57.567Z,20.40
2023-05-14T14:30:24.316Z,20.40
2023-05-14T14:32:51.562Z,20.40
2023-05-14T14:35:19.455Z,20.40
2023-05-14T14:37:50.553Z,20.70
2023-05-14T14:40:17.592Z,20.70
2023-05-14T14:42:44.656Z,20.90
2023-05-14T14:45:11.916Z,21.00
2023-05-14T14:47:38.794Z,21.30
2023-05-14T14:50:06.518Z,21.50
2023-05-14T14:52:33.919Z,21.50
2023-05-14T14:55:00.754Z,21.40
2023-05-14T14:57:27.439Z,21.30
2023-05-14T14:59:54.124Z,21.30
2023-05-14T15:02:20.865Z,21.30
2023-05-14T15:04:47.553Z,21.40
2023-05-14T15:07:16.413Z,21.50
2023-05-14T15:09:43.299Z,21.60
2023-05-14T15:12:10.807Z,21.30
2023-05-14T15:14:37.590Z,21.60
2023-05-14T15:17:04.642Z,21.70
2023-05-14T15:19:32.269Z,21.90
2023-05-14T15:21:58.992Z,22.00
2023-05-14T15:24:26.209Z,22.00
2023-05-14T15:26:53.772Z,21.90
2023-05-14T15:29:20.585Z,21.80
2023-05-14T15:31:47.489Z,21.40
2023-05-14T15:34:14.233Z,21.00
2023-05-14T15:36:41.022Z,20.80
2023-05-14T15:39:10.213Z,20.70
2023-05-14T15:41:37.154Z,20.70
2023-05-14T15:44:04.099Z,20.70
2023-05-14T15:46:31.107Z,20.60
2023-05-14T15:48:58.102Z,20.60
2023-05-14T15:51:24.817Z,20.70
2023-05-14T15:53:53.940Z,21.10
2023-05-14T15:56:22.873Z,21.10
2023-05-14T15:58:49.929Z,21.10
2023-05-14T16:01:16.862Z,21.10
2023-05-14T16:03:43.844Z,21.00
2023-05-14T16:06:11.556Z,21.10
2023-05-14T16:08:38.527Z,21.10
2023-05-14T16:11:06.180Z,21.10
2023-05-14T16:13:33.278Z,21.10
2023-05-14T16:16:01.557Z,20.80
2023-05-14T16:18:28.384Z,20.60
2023-05-14T16:20:55.421Z,20.40
2023-05-14T16:23:22.124Z,20.30
2023-05-14T16:25:48.921Z,20.10
2023-05-14T16:28:15.821Z,19.90
2023-05-14T16:30:42.585Z,19.70
2023-05-14T16:33:09.326Z,19.60
2023-05-14T16:35:36.072Z,19.50
2023-05-14T16:38:02.745Z,19.40
2023-05-14T16:40:29.688Z,19.50
2023-05-14T16:42:56.393Z,19.50
2023-05-14T16:45:23.289Z,19.40
2023-05-14T16:47:50.197Z,19.30
2023-05-14T16:50:17.071Z,19.20
2023-05-14T16:52:43.706Z,19.10
2023-05-14T16:55:10.806Z,19.10
2023-05-14T16:57:37.526Z,19.00
2023-05-14T17:00:06.150Z,19.00
2023-05-14T17:02:33.614Z,18.90
2023-05-14T17:05:00.603Z,18.90
2023-05-14T17:07:27.506Z,18.90
2023-05-14T17:09:54.252Z,18.90
2023-05-14T17:12:21.003Z,18.80
2023-05-14T17:14:47.660Z,18.80
2023-05-14T17:17:14.334Z,18.80
2023-05-14T17:19:41.224Z,18.70
2023-05-14T17:22:08.194Z,18.70
2023-05-14T17:24:36.331Z,18.70
2023-05-14T17:27:03.198Z,18.60
2023-05-14T17:29:29.852Z,18.60
2023-05-14T17:31:56.557Z,18.60
2023-05-14T17:34:23.463Z,18.50
2023-05-14T17:36:50.486Z,18.50
2023-05-14T17:39:17.138Z,18.50
2023-05-14T17:41:43.948Z,18.40
2023-05-14T17:44:12.871Z,18.40
2023-05-14T17:46:41.562Z,18.30
2023-05-14T17:49:08.355Z,18.30
2023-05-14T17:51:35.042Z,18.30
2023-05-14T17:54:01.696Z,18.30
2023-05-14T17:56:28.400Z,18.30
2023-05-14T17:58:55.038Z,18.30
2023-05-14T18:01:21.818Z,18.20
2023-05-14T18:03:48.532Z,18.20
2023-05-14T18:06:15.336Z,18.20
2023-05-14T18:08:42.531Z,18.20
2023-05-14T18:11:09.162Z,18.20
2023-05-14T18:13:35.822Z,18.20
2023-05-14T18:16:02.465Z,18.20
2023-05-14T18:18:29.284Z,18.10
2023-05-14T18:20:56.040Z,18.10
2023-05-14T18:23:22.689Z,18.10
2023-05-14T18:25:49.406Z,18.10
2023-05-14T18:28:16.166Z,18.00
2023-05-14T18:30:43.556Z,17.90
2023-05-14T18:33:10.533Z,17.90
2023-05-14T18:35:37.359Z,17.80
2023-05-14T19:10:23.988Z,16.70
2023-05-14T19:20:50.042Z,16.50
2023-05-14T19:23:16.650Z,16.50
2023-05-14T19:25:43.388Z,16.50
2023-05-14T19:38:51.238Z,16.40
2023-05-14T19:41:18.472Z,16.40
2023-05-14T19:49:09.257Z,16.40
2023-05-14T19:56:53.112Z,16.30
2023-05-14T19:59:20.304Z,16.30
2023-05-14T20:01:47.147Z,16.30
2023-05-14T20:04:16.028Z,16.30
2023-05-14T20:06:45.350Z,16.30
2023-05-14T20:46:55.568Z,16.20
2023-05-14T20:49:22.216Z,16.10
2023-05-14T21:02:30.486Z,16.10
2023-05-14T21:34:32.455Z,15.80
2023-05-14T21:50:19.108Z,15.40
2023-05-14T21:52:45.813Z,15.40
2023-05-14T21:55:12.597Z,15.30
2023-05-14T22:02:56.534Z,15.20
2023-05-14T22:07:58.659Z,15.00
2023-05-14T22:10:25.761Z,15.00
2023-05-14T22:12:52.488Z,14.90
2023-05-14T22:20:36.666Z,14.70
2023-05-14T22:25:45.372Z,14.60
2023-05-14T22:30:47.406Z,14.60
2023-05-14T22:33:14.117Z,14.50
2023-05-14T22:38:22.140Z,14.40
2023-05-14T22:40:48.814Z,14.50
2023-05-14T22:43:15.577Z,14.50
2023-05-14T22:45:43.589Z,14.50
2023-05-14T22:48:10.483Z,14.50
2023-05-14T22:50:37.197Z,14.50
2023-05-14T22:53:03.904Z,14.40
2023-05-14T22:55:30.625Z,14.50
2023-05-14T22:57:57.373Z,14.50
2023-05-14T23:00:24.357Z,14.40
2023-05-14T23:02:51.238Z,14.50
2023-05-14T23:05:18.094Z,14.40
2023-05-14T23:07:44.802Z,14.50
2023-05-14T23:10:11.706Z,14.50
2023-05-14T23:12:38.398Z,14.50
2023-05-14T23:15:05.603Z,14.50
2023-05-14T23:17:32.621Z,14.50
2023-05-14T23:19:59.303Z,14.50
2023-05-14T23:22:25.992Z,14.40
2023-05-14T23:24:52.687Z,14.40
2023-05-14T23:27:19.588Z,14.40
2023-05-14T23:29:46.285Z,14.40
2023-05-14T23:32:13.014Z,14.30
2023-05-14T23:34:39.792Z,14.30
2023-05-14T23:37:06.546Z,14.20
2023-05-14T23:39:33.341Z,14.10
2023-05-14T23:42:00.008Z,14.10
2023-05-14T23:44:26.766Z,14.10
2023-05-14T23:46:53.657Z,14.00
2023-05-14T23:49:20.518Z,13.90
2023-05-14T23:51:47.283Z,13.90
2023-05-14T23:54:16.653Z,13.90
2023-05-14T23:56:43.514Z,13.90
2023-05-14T23:59:10.333Z,13.90
